Sebree, KY

5:02 PM CST on March 05, 2015 (GMT -0600)
Diamond Lake Resort | Change Station
CLOSE
Current Station
Personal Weather Station
Location: Owensboro, KY
Elevation: 466 ft
Nearby Weather Stations

Elev 466 ft 37.64 °N, 87.39 °W | Updated 38 seconds ago

Clear
Clear
21.9 °F
Feels Like 22 °F
N
0.0
Wind Variable Wind from WNW
Gusts 0.0 mph

Today
High -- | Low -- °F
--% Chance of Precip.
Yesterday
High -- | Low -- °F
Precip. -- in
6:16 AM 5:47 PM
Full, 100% visible
Pressure 30.55 in
Visibility 10.0 miles
Clouds Clear
Windchill 22 °F
Dew Point -1 °F
Humidity 36%
Rainfall in
Snow Depth Not available.
UV 0 out of 12
Pollen .70 out of 12
Air Quality Not available.
Flu Activity Not available.
METAR KEHR 052255Z AUTO 34007KT 10SM CLR M06/M16 A3055 RMK AO1

More Conditions Fewer Conditions

Pressure 30.55 in
Visibility 10.0 miles
Clouds Clear
Windchill 22 °F
Dew Point -1 °F
Humidity 36%
Rainfall in
Snow Depth Not available.
UV 0 out of 12
Pollen .70 out of 12
Air Quality Not available.
Flu Activity Not available.
METAR KEHR 052255Z AUTO 34007KT 10SM CLR M06/M16 A3055 RMK AO1

More Conditions Fewer Conditions

10-Day Weather Forecast

Almanac

Astronomy

Mar. 05, 2015 Rise Set
Actual Time
Civil Twilight
Nautical Twilight
Astronomical Twilight
Moon
Length of Visible Light
Length of Day
Tomorrow will be .
, % of the Moon is Illuminated

Today's Extremes

State Highs State Lows

Community

WunderPhotos

Upload Photos

1,803,036 photos uploaded!

WunderBlogs® & News

Nearby

Air Quality

  Air Quality AQ Index Pollutant
Not available.

Snow Depth

Station Depth Elevation

Earthquake Activity

City Distance Mag. Time & Date
Minimum magnitude displayed is 2.5.

Coastal Water Temperatures

Place Temperature

Nearby Weather Stations

Flood Warning
Statement as of 9:24 AM CST on March 05, 2015

The Flood Warning continues for the Green River at Calhoun.
* From Friday afternoon until further notice.
* At 9 am Thursday the stage was 20.9 feet.
* Flood stage is 23.0 feet.
* Minor flooding is forecast.
* Forecast... rise above flood stage by tomorrow afternoon and
continue to rise to near 24.8 feet by Monday morning. Additional
rises are possible thereafter.
* Impact... at 26.0 feet... moderate flooding occurs with thousands of
acreage flooded in the island, Rumsey, and Jewel City areas.


Lat... Lon 3775 8742 3761 8757 3743 8707 3751 8703
      3763 8739 3772 8730